Richmond International Airport
KRIC : now visible

Airfield :











YOU CAN JOIN US ON...

 
LOGIN :

Register | Disclaimer

   EN    FR    IT 

 









Legend :    VFR   Marginal VFR   IFR   Intensive IFR   Very Intensive IFR
Visi :
Ceiling :
>= 8 km
>= 3000ft
5 to 8 km
1000 to 3000 ft
1500m to 5 km
500 to 1000 ft
800 to 1500m
200 to 500 ft
< 800m
< 200 ft
Symbols :   Thunderstorms  Fog  Heavy snow  Heavy precipitations  Wind > 20 kt






- Airport Elevation : 167 ft
- IATA code : RIC


KRIC - Richmond International

CURRENT METAR :
  • 191654Z 02011KT 10SM BKN090 OVC250 09/M03 A3036 RMK AO2 SLP287 T00941028

EXPIRED METARs :
  • 191554Z 01012KT 10SM OVC085 08/M02 A3035 RMK AO2 SLP282 T00831017
  • 191454Z 01010KT 10SM BKN080 OVC095 08/01 A3032 RMK AO2 SLP272 60000 T00830006 53026

TAF KRIC
Valid from the 19 at 12:00 until the 20 at 12:00 UTC


191131Z 1912/2012 02009KT P6SM VCSH BKN040 OVC060
FM191400 36010KT P6SM BKN050 BKN150
FM192100 35006KT P6SM SKC
FM200900 VRB03KT P6SM BKN200



MET'MAP, your aeronautical weather chart ! - Copyright ORBIFLY December 2007 - Disclaimer

ORBIFLY MET'MAP TEAM :

Programming & Development : Alexandra Zaïnal
Concept & original design : Baudouin d'Aumeries
Assistance for programming : Marc-Olivier Méhu
Technical & hardware support : Manuel Goepfert

Contact : metmap@orbifly.com




SOURCES & CREDITS :

   NOAA       Earth
Advisory